Time;durP1;ratioP1;P1;durP2;ratioP2;P2;SDS_P1;SDS_P2;PMS_P1;PMS_P2;Temp;Humidity;BMP_temperature;BMP_pressure;BME280_temperature;BME280_humidity;BME280_pressure;Samples;Min_cycle;Max_cycle;Signal;HPM_P1;HPM_P2
2021/11/22 00:00:51;;;;;;;;;;;;;;;8.63;98.33;99718.41;1755780;80;22371;-75
2021/11/22 00:03:18;;;;;;;;;;;;;;;8.74;98.16;99723.09;1765775;80;20180;-76
2021/11/22 00:05:44;;;;;;;;;;;;;;;8.73;97.70;99722.28;1725356;80;20177;-75
2021/11/22 00:08:09;;;;;;;;;;;;;;;8.75;97.65;99733.47;1760513;80;21052;-76
2021/11/22 00:10:35;;;;;;;;;;;;;;;8.77;97.48;99734.63;1761975;80;20156;-76
2021/11/22 00:13:01;;;;;;;;;;;;;;;8.69;97.16;99736.72;1758754;80;21035;-76
2021/11/22 00:15:26;;;;;;;;;;;;;;;8.77;97.36;99739.89;1759600;80;20185;-76
2021/11/22 00:17:52;;;;;;;;;;;;;;;8.59;97.78;99733.34;1760275;80;20178;-76
2021/11/22 00:20:19;;;;;;;;;;;;;;;8.62;97.91;99743.09;1763938;80;21035;-79
2021/11/22 00:22:45;;;;;;;;;;;;;;;8.52;98.05;99742.85;1755273;80;20179;-77
2021/11/22 00:25:11;;;;;;;;;;;;;;;8.64;98.08;99741.63;1759830;80;21225;-77
2021/11/22 00:27:37;;;;;;;;;;;;;;;8.72;98.06;99746.12;1758809;80;20090;-76
2021/11/22 00:30:04;;;;;;;;;;;;;;;8.82;97.15;99744.20;1760205;80;20258;-78
2021/11/22 00:32:30;;;;;;;;;;;;;;;8.87;97.32;99744.58;1759342;79;20596;-78
2021/11/22 00:34:56;;;;;;;;;;;;;;;8.90;96.42;99744.27;1753556;79;20634;-79
2021/11/22 00:37:25;;;;;;;;;;;;;;;8.96;96.16;99747.59;1751458;80;21252;-77
2021/11/22 00:39:50;;;;;;;;;;;;;;;8.83;95.79;99743.73;1761991;80;20512;-80
2021/11/22 00:42:15;;;;;;;;;;;;;;;8.87;95.85;99745.05;1756952;80;21058;-78
2021/11/22 00:44:41;;;;;;;;;;;;;;;8.81;96.10;99751.78;1762787;80;20404;-78
2021/11/22 00:47:08;;;;;;;;;;;;;;;8.84;96.11;99751.94;1764188;80;20177;-78
2021/11/22 00:49:34;;;;;;;;;;;;;;;8.90;96.10;99757.44;1755149;80;22017;-77
2021/11/22 00:51:59;;;;;;;;;;;;;;;8.84;96.05;99765.95;1762503;80;20189;-78
2021/11/22 00:54:25;;;;;;;;;;;;;;;8.83;96.00;99762.16;1757434;80;20199;-80
2021/11/22 00:56:51;;;;;;;;;;;;;;;8.85;95.65;99759.69;1758659;80;20118;-79
2021/11/22 00:59:16;;;;;;;;;;;;;;;8.85;95.83;99758.37;1760020;80;20167;-78
2021/11/22 01:01:45;;;;;;;;;;;;;;;8.77;95.85;99760.95;1755235;80;21171;-79
2021/11/22 01:04:09;;;;;;;;;;;;;;;8.84;96.12;99763.32;1755379;80;20146;-78
2021/11/22 01:06:35;;;;;;;;;;;;;;;8.83;96.02;99771.38;1757425;80;20596;-79
2021/11/22 01:09:01;;;;;;;;;;;;;;;8.90;95.77;99762.70;1756742;79;20127;-78
2021/11/22 01:11:26;;;;;;;;;;;;;;;8.99;95.42;99767.52;1764625;80;20700;-78
2021/11/22 01:13:52;;;;;;;;;;;;;;;8.82;95.24;99768.39;1758682;80;22439;-78
2021/11/22 01:16:17;;;;;;;;;;;;;;;8.74;93.91;99767.84;1761423;80;20472;-77
2021/11/22 01:18:43;;;;;;;;;;;;;;;8.85;94.19;99770.22;1760680;80;20147;-76
2021/11/22 01:21:08;;;;;;;;;;;;;;;8.85;94.14;99773.34;1763654;80;21195;-76
2021/11/22 01:23:34;;;;;;;;;;;;;;;8.88;93.23;99781.76;1757020;80;20175;-76
2021/11/22 01:26:00;;;;;;;;;;;;;;;8.68;94.28;99785.57;1749951;80;21176;-76
2021/11/22 01:28:29;;;;;;;;;;;;;;;8.90;93.59;99783.77;1763931;80;20127;-77
2021/11/22 01:30:55;;;;;;;;;;;;;;;8.88;93.37;99792.29;1760476;80;20122;-77
2021/11/22 01:33:21;;;;;;;;;;;;;;;8.85;93.75;99790.47;1758923;80;20639;-79
2021/11/22 01:35:47;;;;;;;;;;;;;;;9.03;92.42;99792.56;1752234;80;20131;-77
2021/11/22 01:38:12;;;;;;;;;;;;;;;8.98;91.45;99792.21;1755498;80;21188;-77
2021/11/22 01:40:38;;;;;;;;;;;;;;;8.90;92.17;99796.94;1757230;80;20433;-77
2021/11/22 01:43:04;;;;;;;;;;;;;;;9.02;91.44;99797.98;1753832;80;20198;-76
2021/11/22 01:45:31;;;;;;;;;;;;;;;9.04;91.06;99803.42;1755002;80;20554;-76
2021/11/22 01:47:58;;;;;;;;;;;;;;;9.10;91.01;99801.98;1749905;80;20128;-76
2021/11/22 01:50:25;;;;;;;;;;;;;;;9.12;90.76;99803.96;1750721;80;21167;-77
2021/11/22 01:52:50;;;;;;;;;;;;;;;9.04;91.27;99805.23;1756590;80;20126;-76
2021/11/22 01:55:18;;;;;;;;;;;;;;;8.98;91.07;99803.56;1753364;80;20325;-78
2021/11/22 01:57:43;;;;;;;;;;;;;;;9.05;90.44;99814.80;1752822;80;20137;-77
2021/11/22 02:00:18;;;;;;;;;;;;;;;9.09;90.48;99813.49;1745866;80;20258;-77
2021/11/22 02:02:44;;;;;;;;;;;;;;;8.97;90.15;99812.44;1758343;80;20997;-78
2021/11/22 02:05:09;;;;;;;;;;;;;;;8.94;90.59;99814.06;1764511;80;20227;-77
2021/11/22 02:07:36;;;;;;;;;;;;;;;8.98;90.47;99819.37;1763385;80;20200;-78
2021/11/22 02:10:04;;;;;;;;;;;;;;;9.03;90.37;99818.91;1752599;80;20175;-77
2021/11/22 02:12:33;;;;;;;;;;;;;;;8.95;90.42;99822.81;1747449;80;20177;-77
2021/11/22 02:14:59;;;;;;;;;;;;;;;8.95;90.44;99818.36;1757738;80;21081;-76
2021/11/22 02:17:24;;;;;;;;;;;;;;;9.05;90.41;99824.84;1752665;80;20209;-77
2021/11/22 02:19:58;;;;;;;;;;;;;;;9.03;90.24;99824.67;1754739;80;20499;-77
2021/11/22 02:22:24;;;;;;;;;;;;;;;9.04;90.01;99823.17;1755560;80;20246;-79
2021/11/22 02:24:49;;;;;;;;;;;;;;;9.02;90.36;99829.59;1760758;80;21362;-77
2021/11/22 02:27:15;;;;;;;;;;;;;;;8.98;90.37;99826.45;1746949;80;21018;-79
2021/11/22 02:29:41;;;;;;;;;;;;;;;9.14;90.13;99831.00;1754755;80;20460;-78
2021/11/22 02:32:06;;;;;;;;;;;;;;;9.20;89.86;99829.06;1757371;80;20320;-79
2021/11/22 02:34:32;;;;;;;;;;;;;;;9.15;89.86;99839.21;1743989;80;20421;-77
2021/11/22 02:36:57;;;;;;;;;;;;;;;9.14;89.83;99837.58;1756234;80;20766;-77
2021/11/22 02:39:23;;;;;;;;;;;;;;;8.79;91.56;99837.50;1760859;80;21188;-77
2021/11/22 02:41:49;;;;;;;;;;;;;;;8.75;91.88;99839.27;1759571;80;20512;-77
2021/11/22 02:44:14;;;;;;;;;;;;;;;8.89;92.25;99840.03;1755848;80;20177;-78
2021/11/22 02:46:40;;;;;;;;;;;;;;;9.08;90.30;99846.92;1752077;80;20179;-78
2021/11/22 02:49:05;;;;;;;;;;;;;;;9.15;90.55;99844.48;1750620;80;20129;-77
2021/11/22 02:51:31;;;;;;;;;;;;;;;8.87;91.65;99853.86;1761629;80;21160;-77
2021/11/22 02:53:58;;;;;;;;;;;;;;;9.02;90.90;99852.80;1762911;80;20137;-77
2021/11/22 02:56:30;;;;;;;;;;;;;;;9.07;90.55;99855.79;1755503;80;20164;-77
2021/11/22 02:58:55;;;;;;;;;;;;;;;9.07;90.23;99858.42;1756031;80;20172;-77
2021/11/22 03:01:21;;;;;;;;;;;;;;;9.06;90.32;99855.94;1756724;80;20147;-78
2021/11/22 03:03:46;;;;;;;;;;;;;;;8.85;91.55;99865.01;1757681;80;22011;-77
2021/11/22 03:06:13;;;;;;;;;;;;;;;8.66;93.05;99862.55;1757886;80;20137;-77
2021/11/22 03:08:39;;;;;;;;;;;;;;;8.72;93.20;99864.58;1762217;80;20166;-77
2021/11/22 03:11:05;;;;;;;;;;;;;;;8.62;93.77;99865.48;1760479;80;20197;-77
2021/11/22 03:13:31;;;;;;;;;;;;;;;8.62;93.92;99862.86;1756475;80;20193;-79
2021/11/22 03:15:56;;;;;;;;;;;;;;;8.69;93.93;99865.70;1757453;80;21155;-78
2021/11/22 03:18:22;;;;;;;;;;;;;;;8.76;93.58;99871.19;1751390;80;20135;-77
2021/11/22 03:20:48;;;;;;;;;;;;;;;8.74;93.60;99871.83;1757049;80;20672;-78
2021/11/22 03:23:13;;;;;;;;;;;;;;;8.66;93.92;99870.45;1761668;80;20525;-78
2021/11/22 03:25:39;;;;;;;;;;;;;;;8.61;94.22;99875.66;1757610;80;20191;-78
2021/11/22 03:28:06;;;;;;;;;;;;;;;8.58;94.43;99874.65;1761542;80;21175;-78
2021/11/22 03:30:31;;;;;;;;;;;;;;;8.69;94.19;99872.78;1763706;80;21138;-78
2021/11/22 03:32:57;;;;;;;;;;;;;;;8.57;94.05;99875.62;1765596;80;20152;-77
2021/11/22 03:35:23;;;;;;;;;;;;;;;8.52;94.73;99879.20;1762061;80;20228;-79
2021/11/22 03:37:49;;;;;;;;;;;;;;;8.67;94.40;99886.56;1761113;80;20197;-77
2021/11/22 03:40:15;;;;;;;;;;;;;;;8.78;93.99;99887.67;1761611;80;21102;-78
2021/11/22 03:42:51;;;;;;;;;;;;;;;8.74;93.83;99898.16;1765830;80;20753;-78
2021/11/22 03:45:09;;;;;;;;;;;;;;;8.60;94.42;99897.69;1761344;80;20182;-78
2021/11/22 03:47:35;;;;;;;;;;;;;;;8.54;94.81;99902.23;1754436;80;20200;-78
2021/11/22 03:50:01;;;;;;;;;;;;;;;8.63;94.67;99913.19;1761266;80;20171;-79
2021/11/22 03:52:27;;;;;;;;;;;;;;;8.60;93.93;99917.93;1759851;80;21070;-77
2021/11/22 03:54:53;;;;;;;;;;;;;;;8.50;94.23;99921.10;1766651;80;20151;-78
2021/11/22 03:57:18;;;;;;;;;;;;;;;8.51;94.27;99928.03;1759595;80;20480;-78
2021/11/22 03:59:44;;;;;;;;;;;;;;;8.49;94.17;99932.13;1761485;80;20132;-78
2021/11/22 04:02:10;;;;;;;;;;;;;;;8.47;93.88;99938.04;1761168;80;20510;-80
2021/11/22 04:04:35;;;;;;;;;;;;;;;8.45;93.45;99936.02;1766201;80;21159;-80
2021/11/22 04:07:01;;;;;;;;;;;;;;;8.44;92.71;99940.96;1763480;80;20279;-78
2021/11/22 04:09:27;;;;;;;;;;;;;;;8.43;92.84;99934.00;1763610;80;20262;-78
2021/11/22 04:11:53;;;;;;;;;;;;;;;8.51;92.82;99942.01;1759425;80;20632;-78
2021/11/22 04:14:18;;;;;;;;;;;;;;;8.47;93.02;99940.67;1758025;80;20163;-79
2021/11/22 04:16:44;;;;;;;;;;;;;;;8.49;92.61;99943.97;1767565;80;21877;-78
2021/11/22 04:19:09;;;;;;;;;;;;;;;8.48;92.22;99947.56;1766415;80;20138;-77
2021/11/22 04:21:35;;;;;;;;;;;;;;;8.50;91.03;99945.64;1761796;80;20272;-78
2021/11/22 04:24:01;;;;;;;;;;;;;;;8.46;90.82;99952.16;1757749;80;20208;-78
2021/11/22 04:26:26;;;;;;;;;;;;;;;8.49;91.04;99950.55;1762325;80;20555;-78
2021/11/22 04:28:52;;;;;;;;;;;;;;;8.55;90.70;99952.59;1765174;80;21044;-79
2021/11/22 04:31:17;;;;;;;;;;;;;;;8.63;90.49;99960.56;1769877;79;20479;-78
2021/11/22 04:33:43;;;;;;;;;;;;;;;8.69;90.18;99958.34;1762715;80;20116;-78
2021/11/22 04:36:09;;;;;;;;;;;;;;;8.73;89.94;99958.36;1758963;80;20718;-78
2021/11/22 04:38:35;;;;;;;;;;;;;;;8.62;89.85;99966.83;1760968;80;20166;-78
2021/11/22 04:41:02;;;;;;;;;;;;;;;8.65;90.25;99963.55;1758979;80;21920;-77
2021/11/22 04:43:28;;;;;;;;;;;;;;;8.60;90.17;99974.52;1763657;80;20186;-79
2021/11/22 04:45:53;;;;;;;;;;;;;;;8.47;90.55;99977.52;1765028;79;20244;-80
2021/11/22 04:48:19;;;;;;;;;;;;;;;8.62;89.83;99983.09;1757318;80;20121;-79
2021/11/22 04:50:45;;;;;;;;;;;;;;;8.69;89.97;99980.72;1758104;80;20201;-78
2021/11/22 04:53:10;;;;;;;;;;;;;;;8.73;89.67;99986.85;1761656;81;21179;-79
2021/11/22 04:55:36;;;;;;;;;;;;;;;8.74;89.55;99983.72;1722332;81;20320;-80
2021/11/22 04:58:01;;;;;;;;;;;;;;;8.67;89.54;99987.91;1758278;80;20151;-79
2021/11/22 05:00:27;;;;;;;;;;;;;;;8.62;89.90;99991.84;1760272;80;20161;-77
2021/11/22 05:02:53;;;;;;;;;;;;;;;8.34;90.49;99997.53;1758322;81;20501;-80
2021/11/22 05:05:19;;;;;;;;;;;;;;;8.38;91.44;99994.96;1719869;81;21000;-78
2021/11/22 05:07:45;;;;;;;;;;;;;;;8.60;90.62;99991.13;1736207;81;20780;-81
2021/11/22 05:10:11;;;;;;;;;;;;;;;8.87;89.54;99997.84;1735188;81;20198;-81
2021/11/22 05:12:36;;;;;;;;;;;;;;;8.68;89.26;100000.11;1758853;81;20208;-81
2021/11/22 05:15:03;;;;;;;;;;;;;;;8.55;90.08;100001.28;1738853;81;20169;-78
2021/11/22 05:17:28;;;;;;;;;;;;;;;8.31;90.65;100006.21;1756696;80;21337;-81
2021/11/22 05:19:54;;;;;;;;;;;;;;;8.38;90.90;100005.98;1729157;82;20153;-78
2021/11/22 05:22:21;;;;;;;;;;;;;;;8.33;90.93;100014.78;1727882;82;20483;-78
2021/11/22 05:24:50;;;;;;;;;;;;;;;8.36;90.32;100015.80;1757588;80;20133;-79
2021/11/22 05:27:18;;;;;;;;;;;;;;;8.24;90.65;100023.89;1756846;81;20225;-78
2021/11/22 05:29:44;;;;;;;;;;;;;;;8.21;90.77;100026.80;1747222;82;21075;-79
2021/11/22 05:32:10;;;;;;;;;;;;;;;8.39;90.46;100033.47;1744936;81;20504;-77
2021/11/22 05:34:37;;;;;;;;;;;;;;;8.19;90.99;100039.78;1754709;81;20159;-79
2021/11/22 05:37:03;;;;;;;;;;;;;;;8.25;90.56;100039.20;1754777;81;20564;-78
2021/11/22 05:39:29;;;;;;;;;;;;;;;8.12;90.55;100040.00;1736575;82;20853;-78
2021/11/22 05:41:55;;;;;;;;;;;;;;;8.14;90.47;100035.41;1761871;80;21881;-79
2021/11/22 05:44:21;;;;;;;;;;;;;;;8.08;90.84;100039.47;1762306;80;20148;-77
2021/11/22 05:46:49;;;;;;;;;;;;;;;8.12;90.54;100044.77;1759214;79;20711;-78
2021/11/22 05:49:14;;;;;;;;;;;;;;;8.07;90.61;100040.42;1752118;81;20162;-80
2021/11/22 05:51:40;;;;;;;;;;;;;;;8.12;90.34;100039.50;1736763;81;20291;-78
2021/11/22 05:54:06;;;;;;;;;;;;;;;8.00;90.56;100041.95;1746888;81;21150;-77
2021/11/22 05:56:31;;;;;;;;;;;;;;;7.66;90.97;100046.36;1740140;80;20489;-77
2021/11/22 05:58:57;;;;;;;;;;;;;;;7.89;90.77;100051.69;1738564;81;20146;-78
2021/11/22 06:01:23;;;;;;;;;;;;;;;8.03;90.68;100053.50;1738414;80;20506;-77
2021/11/22 06:03:48;;;;;;;;;;;;;;;8.09;90.53;100056.42;1733649;80;20180;-78
2021/11/22 06:06:16;;;;;;;;;;;;;;;8.12;90.29;100060.54;1728629;81;21837;-78
2021/11/22 06:08:41;;;;;;;;;;;;;;;8.07;90.28;100063.59;1744569;81;20503;-78
2021/11/22 06:11:07;;;;;;;;;;;;;;;8.05;90.44;100073.94;1733914;80;20273;-78
2021/11/22 06:13:33;;;;;;;;;;;;;;;8.00;90.68;100074.36;1741039;81;20535;-78
2021/11/22 06:15:58;;;;;;;;;;;;;;;8.00;90.84;100076.14;1738542;81;20248;-77
2021/11/22 06:18:26;;;;;;;;;;;;;;;7.97;91.34;100073.80;1742282;81;21157;-76
2021/11/22 06:20:53;;;;;;;;;;;;;;;7.88;92.22;100082.88;1746609;81;20117;-76
2021/11/22 06:23:20;;;;;;;;;;;;;;;8.08;91.21;100081.55;1746141;80;20134;-77
2021/11/22 06:25:46;;;;;;;;;;;;;;;8.15;90.91;100091.82;1739766;81;20179;-78
2021/11/22 06:28:13;;;;;;;;;;;;;;;8.17;90.66;100096.48;1747956;81;20117;-78
2021/11/22 06:30:41;;;;;;;;;;;;;;;8.20;90.94;100109.34;1743795;81;21155;-78
2021/11/22 06:33:07;;;;;;;;;;;;;;;8.29;90.14;100112.09;1730571;81;20164;-77
2021/11/22 06:35:34;;;;;;;;;;;;;;;8.35;89.79;100116.78;1733326;81;20173;-76
2021/11/22 06:38:01;;;;;;;;;;;;;;;8.12;89.75;100117.59;1744898;81;20918;-78
2021/11/22 06:40:27;;;;;;;;;;;;;;;8.23;89.72;100122.22;1742801;81;20229;-79
2021/11/22 06:42:52;;;;;;;;;;;;;;;8.21;89.79;100124.14;1741142;81;21132;-78
2021/11/22 06:45:18;;;;;;;;;;;;;;;8.18;89.76;100127.05;1744548;81;20747;-82
2021/11/22 06:47:44;;;;;;;;;;;;;;;7.79;91.45;100131.03;1734569;81;20342;-81
2021/11/22 06:50:10;;;;;;;;;;;;;;;7.92;91.19;100130.75;1732590;81;20453;-78
2021/11/22 06:52:36;;;;;;;;;;;;;;;7.97;91.07;100127.70;1736025;82;20283;-78
2021/11/22 06:55:01;;;;;;;;;;;;;;;8.08;90.37;100136.77;1734617;80;21077;-78
2021/11/22 06:57:28;;;;;;;;;;;;;;;8.27;89.34;100138.04;1732470;82;20178;-79
2021/11/22 06:59:54;;;;;;;;;;;;;;;8.34;89.11;100130.40;1739910;80;21038;-77
2021/11/22 07:02:20;;;;;;;;;;;;;;;8.35;89.09;100132.07;1737353;80;20712;-77
2021/11/22 07:04:46;;;;;;;;;;;;;;;8.18;88.75;100138.06;1740467;80;20128;-80
2021/11/22 07:07:12;;;;;;;;;;;;;;;7.94;90.13;100137.18;1734406;80;21065;-78
2021/11/22 07:09:38;;;;;;;;;;;;;;;7.98;89.97;100139.89;1741563;80;20363;-77
2021/11/22 07:12:04;;;;;;;;;;;;;;;7.87;90.42;100144.31;1742260;82;20203;-77
2021/11/22 07:14:30;;;;;;;;;;;;;;;7.96;90.61;100149.72;1735813;81;20181;-77
2021/11/22 07:16:56;;;;;;;;;;;;;;;7.91;90.82;100152.27;1728687;82;20174;-80
2021/11/22 07:19:22;;;;;;;;;;;;;;;7.85;91.06;100159.40;1739811;80;21268;-79
2021/11/22 07:21:47;;;;;;;;;;;;;;;7.77;91.61;100160.58;1739626;80;20145;-80
2021/11/22 07:24:13;;;;;;;;;;;;;;;7.89;91.45;100166.05;1736428;81;20975;-80
2021/11/22 07:26:39;;;;;;;;;;;;;;;7.74;91.89;100164.80;1735397;81;20171;-80
2021/11/22 07:29:04;;;;;;;;;;;;;;;7.79;91.72;100167.84;1739405;81;20586;-79
2021/11/22 07:31:30;;;;;;;;;;;;;;;7.85;91.44;100167.29;1740031;82;21131;-78
2021/11/22 07:33:56;;;;;;;;;;;;;;;8.01;90.81;100172.48;1739344;82;20193;-78
2021/11/22 07:36:22;;;;;;;;;;;;;;;8.00;90.52;100170.81;1739367;80;20210;-77
2021/11/22 07:38:47;;;;;;;;;;;;;;;7.89;91.06;100175.25;1741312;82;20133;-78
2021/11/22 07:41:13;;;;;;;;;;;;;;;8.02;90.71;100178.09;1742617;81;20768;-79
2021/11/22 07:43:38;;;;;;;;;;;;;;;7.98;90.83;100174.07;1712816;82;21073;-77
2021/11/22 07:46:04;;;;;;;;;;;;;;;8.10;90.65;100175.59;1746978;80;20467;-79
2021/11/22 07:48:30;;;;;;;;;;;;;;;8.16;90.54;100174.22;1744256;80;20173;-78
2021/11/22 07:50:55;;;;;;;;;;;;;;;8.11;89.93;100176.41;1756395;80;20459;-80
2021/11/22 07:53:21;;;;;;;;;;;;;;;8.05;90.06;100187.02;1756061;80;20145;-79
2021/11/22 07:55:47;;;;;;;;;;;;;;;8.01;90.16;100189.08;1755204;80;21563;-78
2021/11/22 07:58:13;;;;;;;;;;;;;;;7.95;90.43;100198.02;1765321;80;20923;-79
2021/11/22 08:00:38;;;;;;;;;;;;;;;7.87;91.30;100200.84;1762029;80;20111;-77
2021/11/22 08:03:04;;;;;;;;;;;;;;;7.77;91.36;100207.91;1756005;80;20131;-78
2021/11/22 08:05:31;;;;;;;;;;;;;;;7.84;90.77;100212.94;1756202;80;20768;-79
2021/11/22 08:07:57;;;;;;;;;;;;;;;7.85;90.09;100214.61;1761923;80;21580;-77
2021/11/22 08:12:52;;;;;;;;;;;;;;;8.03;89.85;100224.45;1751603;80;20116;-78
2021/11/22 08:15:19;;;;;;;;;;;;;;;8.04;89.51;100235.32;1760073;80;20175;-77
2021/11/22 08:17:45;;;;;;;;;;;;;;;8.19;88.93;100235.26;1762102;80;20212;-78
2021/11/22 08:20:11;;;;;;;;;;;;;;;8.16;88.81;100237.34;1758746;80;21021;-78
2021/11/22 08:22:36;;;;;;;;;;;;;;;8.22;88.79;100241.56;1758213;80;20160;-78
2021/11/22 08:25:03;;;;;;;;;;;;;;;8.19;88.68;100248.41;1762285;79;20482;-76
2021/11/22 08:27:29;;;;;;;;;;;;;;;8.22;88.60;100246.82;1760670;79;20370;-75
2021/11/22 08:29:56;;;;;;;;;;;;;;;8.31;88.07;100248.27;1764486;79;20155;-77
2021/11/22 08:32:22;;;;;;;;;;;;;;;8.36;88.11;100251.30;1762412;80;22350;-77
2021/11/22 08:34:48;;;;;;;;;;;;;;;8.36;87.08;100252.61;1761553;80;20163;-76
2021/11/22 08:37:13;;;;;;;;;;;;;;;8.30;87.25;100254.48;1767293;80;20124;-76
2021/11/22 08:39:39;;;;;;;;;;;;;;;8.25;87.16;100266.27;1757254;80;20576;-75
2021/11/22 08:42:05;;;;;;;;;;;;;;;8.34;87.05;100261.14;1760013;80;20114;-79
2021/11/22 08:44:31;;;;;;;;;;;;;;;8.50;86.31;100268.03;1762479;80;21109;-77
2021/11/22 08:46:57;;;;;;;;;;;;;;;8.54;85.86;100265.94;1763670;79;20146;-78
2021/11/22 08:49:23;;;;;;;;;;;;;;;8.53;86.21;100269.07;1769587;80;20213;-77
2021/11/22 08:51:48;;;;;;;;;;;;;;;8.39;86.14;100267.66;1763291;80;20722;-77
2021/11/22 08:54:14;;;;;;;;;;;;;;;8.53;86.33;100273.48;1759704;79;20169;-76
2021/11/22 08:56:39;;;;;;;;;;;;;;;8.36;86.59;100274.98;1761870;79;21823;-78
2021/11/22 08:59:05;;;;;;;;;;;;;;;8.42;86.20;100277.05;1767997;79;20469;-80
2021/11/22 09:01:31;;;;;;;;;;;;;;;8.42;86.70;100271.79;1758990;80;20250;-79
2021/11/22 09:03:56;;;;;;;;;;;;;;;8.34;86.42;100276.43;1764150;80;20142;-80
2021/11/22 09:06:22;;;;;;;;;;;;;;;8.36;86.10;100278.92;1758717;80;20299;-79
2021/11/22 09:08:48;;;;;;;;;;;;;;;8.34;86.50;100283.50;1765002;80;21921;-78
2021/11/22 09:11:14;;;;;;;;;;;;;;;8.27;86.48;100281.42;1761923;80;20192;-78
2021/11/22 09:13:40;;;;;;;;;;;;;;;8.16;87.44;100283.38;1757883;80;20362;-80
2021/11/22 09:16:06;;;;;;;;;;;;;;;8.20;87.63;100287.38;1764220;80;20210;-80
2021/11/22 09:18:31;;;;;;;;;;;;;;;8.27;87.33;100280.11;1762442;80;20256;-79
2021/11/22 09:20:57;;;;;;;;;;;;;;;8.47;87.13;100290.69;1769640;80;21175;-78
2021/11/22 09:23:22;;;;;;;;;;;;;;;8.35;86.92;100290.44;1759483;79;20531;-76
2021/11/22 09:25:49;;;;;;;;;;;;;;;8.48;86.98;100294.95;1764706;80;20209;-79
2021/11/22 09:28:14;;;;;;;;;;;;;;;8.36;87.12;100296.03;1772502;80;20181;-78
2021/11/22 09:30:40;;;;;;;;;;;;;;;8.22;88.19;100291.54;1761091;80;20196;-79
2021/11/22 09:33:09;;;;;;;;;;;;;;;8.19;88.67;100291.81;1755683;80;21104;-77
2021/11/22 09:35:33;;;;;;;;;;;;;;;8.11;89.27;100292.99;1757300;80;20175;-78
2021/11/22 09:37:59;;;;;;;;;;;;;;;8.36;88.73;100296.03;1757801;80;20200;-78
2021/11/22 09:40:24;;;;;;;;;;;;;;;8.37;88.11;100301.65;1759597;80;20122;-77
2021/11/22 09:42:54;;;;;;;;;;;;;;;8.32;88.27;100294.17;1759510;80;20172;-78
2021/11/22 09:45:19;;;;;;;;;;;;;;;8.25;88.13;100295.22;1766218;80;20159;-78
2021/11/22 09:47:44;;;;;;;;;;;;;;;8.30;88.09;100295.27;1766961;80;20221;-78
2021/11/22 09:50:10;;;;;;;;;;;;;;;8.45;87.71;100303.12;1757806;80;20613;-78
2021/11/22 09:52:35;;;;;;;;;;;;;;;8.44;87.33;100306.75;1752449;80;20189;-78
2021/11/22 09:55:01;;;;;;;;;;;;;;;8.54;86.83;100307.56;1759639;80;20133;-80
2021/11/22 09:57:27;;;;;;;;;;;;;;;8.69;85.62;100311.92;1761348;80;21091;-78
2021/11/22 09:59:52;;;;;;;;;;;;;;;8.66;85.09;100310.89;1753806;80;20285;-81
2021/11/22 10:02:18;;;;;;;;;;;;;;;8.68;84.97;100315.52;1754679;80;20144;-77
2021/11/22 10:04:44;;;;;;;;;;;;;;;8.76;84.87;100316.14;1754709;80;20161;-77
2021/11/22 10:07:10;;;;;;;;;;;;;;;8.71;84.89;100311.78;1761214;80;20315;-78
2021/11/22 10:09:40;;;;;;;;;;;;;;;8.86;84.61;100309.06;1759808;80;21086;-78
2021/11/22 10:12:09;;;;;;;;;;;;;;;8.69;85.60;100313.73;1756825;80;21300;-77
2021/11/22 10:14:47;;;;;;;;;;;;;;;8.73;85.72;100312.47;1758003;80;20280;-77
2021/11/22 10:17:28;;;;;;;;;;;;;;;8.75;85.84;100310.55;1755346;80;20185;-78
2021/11/22 10:20:10;;;;;;;;;;;;;;;8.73;85.65;100317.73;1724551;80;38753;-78
2021/11/22 10:23:07;;;;;;;;;;;;;;;8.46;86.71;100313.19;1757601;80;21038;-78
2021/11/22 10:25:37;;;;;;;;;;;;;;;8.60;86.87;100317.53;1756583;80;20157;-78
2021/11/22 10:28:18;;;;;;;;;;;;;;;8.59;86.48;100318.52;1759220;80;20210;-78
2021/11/22 10:30:56;;;;;;;;;;;;;;;8.58;86.54;100324.75;1753656;80;20252;-79
2021/11/22 10:33:26;;;;;;;;;;;;;;;8.67;87.03;100325.72;1767133;80;20444;-78
2021/11/22 10:35:55;;;;;;;;;;;;;;;8.60;87.08;100325.43;1763132;79;21232;-79
2021/11/22 10:38:22;;;;;;;;;;;;;;;8.62;86.46;100330.55;1757063;80;20118;-78
2021/11/22 10:40:54;;;;;;;;;;;;;;;8.47;86.25;100329.30;1761513;80;20141;-79
2021/11/22 10:43:20;;;;;;;;;;;;;;;8.53;85.60;100335.33;1759317;80;20447;-79
2021/11/22 10:45:50;;;;;;;;;;;;;;;8.47;85.28;100334.11;1763299;80;20457;-77
2021/11/22 10:48:26;;;;;;;;;;;;;;;8.37;85.92;100338.48;1764754;80;21134;-80
2021/11/22 10:51:03;;;;;;;;;;;;;;;8.19;85.68;100337.85;1755095;80;20505;-81
2021/11/22 10:53:31;;;;;;;;;;;;;;;8.29;86.22;100331.77;1755463;80;20206;-81
2021/11/22 10:55:57;;;;;;;;;;;;;;;8.12;85.99;100336.72;1754601;80;20197;-79
2021/11/22 10:58:53;;;;;;;;;;;;;;;8.12;86.20;100333.27;1758385;80;20197;-79
2021/11/22 11:01:39;;;;;;;;;;;;;;;8.21;85.57;100334.59;1757190;80;21145;-82
2021/11/22 11:04:08;;;;;;;;;;;;;;;8.34;84.96;100332.19;1759866;80;20514;-78
2021/11/22 11:06:42;;;;;;;;;;;;;;;8.14;83.97;100338.75;1724065;81;20658;-78
2021/11/22 11:09:16;;;;;;;;;;;;;;;8.21;84.05;100343.80;1755854;80;20551;-83
2021/11/22 11:11:43;;;;;;;;;;;;;;;8.26;83.75;100332.41;1757833;80;20479;-79
2021/11/22 11:14:10;;;;;;;;;;;;;;;8.32;82.27;100349.92;1725751;81;21052;-80
2021/11/22 11:16:36;;;;;;;;;;;;;;;8.34;82.08;100347.97;1758460;80;20149;-79
2021/11/22 11:19:09;;;;;;;;;;;;;;;8.29;82.21;100347.56;1757894;80;20513;-78
2021/11/22 11:21:38;;;;;;;;;;;;;;;8.37;82.84;100352.96;1751359;81;20265;-78
2021/11/22 11:24:04;;;;;;;;;;;;;;;8.21;84.30;100349.06;1755938;80;20212;-78
2021/11/22 11:26:30;;;;;;;;;;;;;;;8.40;83.25;100346.11;1722189;82;21064;-80
2021/11/22 11:28:56;;;;;;;;;;;;;;;8.79;81.76;100350.09;1760603;80;20253;-78
2021/11/22 11:31:21;;;;;;;;;;;;;;;8.74;81.57;100347.88;1739791;81;20379;-78
2021/11/22 11:33:47;;;;;;;;;;;;;;;8.69;81.50;100347.97;1760704;80;20503;-79
2021/11/22 11:36:16;;;;;;;;;;;;;;;8.62;81.78;100347.20;1760795;80;20500;-80
2021/11/22 11:39:01;;;;;;;;;;;;;;;8.89;81.12;100348.29;1719718;80;22267;-79
2021/11/22 11:41:48;;;;;;;;;;;;;;;8.89;79.27;100353.56;1755986;80;20229;-79
2021/11/22 11:44:53;;;;;;;;;;;;;;;8.89;79.11;100353.56;1756659;80;20624;-79
2021/11/22 11:47:34;;;;;;;;;;;;;;;8.82;79.31;100360.34;1760319;80;20257;-79
2021/11/22 11:50:22;;;;;;;;;;;;;;;8.83;79.42;100365.14;1759724;80;20657;-79
2021/11/22 11:52:59;;;;;;;;;;;;;;;8.83;79.29;100361.20;1755997;80;21071;-82
2021/11/22 11:55:27;;;;;;;;;;;;;;;8.88;79.52;100366.87;1757446;80;20174;-79
2021/11/22 11:58:19;;;;;;;;;;;;;;;8.91;79.49;100365.27;1757175;80;20121;-79
2021/11/22 12:01:16;;;;;;;;;;;;;;;8.74;79.98;100368.12;1766312;80;20177;-79
2021/11/22 12:04:06;;;;;;;;;;;;;;;8.68;80.51;100369.49;1759051;80;20177;-78
2021/11/22 12:06:47;;;;;;;;;;;;;;;8.72;80.20;100370.89;1762024;80;21192;-79
2021/11/22 12:09:31;;;;;;;;;;;;;;;8.53;80.76;100370.41;1761381;80;20148;-76
2021/11/22 12:12:12;;;;;;;;;;;;;;;8.50;80.99;100368.51;1764649;80;20533;-77
2021/11/22 12:14:54;;;;;;;;;;;;;;;8.55;81.00;100375.03;1758447;80;21050;-79
2021/11/22 12:17:39;;;;;;;;;;;;;;;8.55;80.34;100375.03;1759407;80;20512;-78
2021/11/22 12:20:21;;;;;;;;;;;;;;;8.63;80.36;100374.34;1760760;80;22543;-84
2021/11/22 12:22:52;;;;;;;;;;;;;;;8.63;79.17;100380.44;1758607;80;20197;-80
2021/11/22 12:25:42;;;;;;;;;;;;;;;8.70;79.30;100381.20;1761600;80;20500;-81
2021/11/22 12:28:11;;;;;;;;;;;;;;;8.74;78.11;100379.47;1746799;80;20233;-79
2021/11/22 12:30:41;;;;;;;;;;;;;;;8.74;76.61;100378.64;1764233;80;20178;-81
2021/11/22 12:33:26;;;;;;;;;;;;;;;8.77;76.41;100375.73;1765593;80;21060;-81
2021/11/22 12:35:59;;;;;;;;;;;;;;;8.76;76.39;100375.38;1759772;80;20170;-80
2021/11/22 12:38:27;;;;;;;;;;;;;;;8.90;74.63;100378.94;1757341;80;20126;-84
2021/11/22 12:40:59;;;;;;;;;;;;;;;9.04;74.93;100380.77;1759874;80;20229;-81
2021/11/22 12:43:40;;;;;;;;;;;;;;;8.85;74.58;100380.31;1759830;80;20201;-81
2021/11/22 12:46:07;;;;;;;;;;;;;;;9.06;74.64;100384.09;1758801;80;21168;-80
2021/11/22 12:48:35;;;;;;;;;;;;;;;9.07;74.65;100390.53;1761119;80;20643;-81
2021/11/22 12:51:03;;;;;;;;;;;;;;;8.80;74.05;100395.20;1756085;80;20292;-81
2021/11/22 12:53:28;;;;;;;;;;;;;;;9.14;74.25;100397.41;1756748;79;20169;-82
2021/11/22 12:55:55;;;;;;;;;;;;;;;8.93;74.01;100402.36;1761201;79;21258;-81